EWG757 LOWW-EDDK
Flight info
| Callsign | EWG757 |
|---|---|
| Flight time | 1h 11m |
| Altitude | 38000 |
| Route | BUWUT DCT DITIS DCT RAPET T843 VELIS/N0422F320 DCT MASEK T841 ERNEP ERNEP1B |
| Aircraft | A319/M-SDE3FGHIRWY/LB1 |
Departure
| Time | 2026-05-06 19:53 |
|---|---|
| Airport | Vienna International Airport (LOWW) |
Arrival
| Time | 2026-05-06 21:05 |
|---|---|
| Airport | Cologne Bonn Airport (EDDK) |
| Time | Latitude | Longitude | Altitude | Speed | Heading |
|---|---|---|---|---|---|
| 2026-05-06 18:57 | 48.12052 | 16.55638 | 623 ft | 0 kts | 115° |
| 2026-05-06 19:22 | 48.12054 | 16.55630 | 610 ft | 4 kts | 115° |
| 2026-05-06 19:22 | 48.12067 | 16.55594 | 615 ft | 4 kts | 127° |
| 2026-05-06 19:22 | 48.12085 | 16.55569 | 624 ft | 4 kts | 171° |
| 2026-05-06 19:23 | 48.12096 | 16.55570 | 618 ft | 0 kts | 206° |
| 2026-05-06 19:25 | 48.12093 | 16.55567 | 610 ft | 1 kts | 206° |
| 2026-05-06 19:25 | 48.12082 | 16.55559 | 618 ft | 3 kts | 206° |
| 2026-05-06 19:25 | 48.12054 | 16.55539 | 610 ft | 6 kts | 206° |
| 2026-05-06 19:25 | 48.12016 | 16.55512 | 610 ft | 6 kts | 206° |
| 2026-05-06 19:26 | 48.11972 | 16.55480 | 615 ft | 8 kts | 206° |
| 2026-05-06 19:26 | 48.11921 | 16.55445 | 615 ft | 8 kts | 198° |
| 2026-05-06 19:26 | 48.11857 | 16.55429 | 610 ft | 10 kts | 188° |
| 2026-05-06 19:26 | 48.11841 | 16.55334 | 615 ft | 13 kts | 294° |
| 2026-05-06 19:27 | 48.11886 | 16.55202 | 610 ft | 15 kts | 297° |
| 2026-05-06 19:27 | 48.11929 | 16.55066 | 610 ft | 15 kts | 295° |
| 2026-05-06 19:27 | 48.11974 | 16.54928 | 610 ft | 15 kts | 296° |
| 2026-05-06 19:27 | 48.12019 | 16.54789 | 610 ft | 15 kts | 296° |
| 2026-05-06 19:28 | 48.12064 | 16.54651 | 616 ft | 15 kts | 296° |
| 2026-05-06 19:28 | 48.12109 | 16.54511 | 618 ft | 15 kts | 295° |
| 2026-05-06 19:28 | 48.12155 | 16.54373 | 617 ft | 15 kts | 296° |
| 2026-05-06 19:28 | 48.12197 | 16.54241 | 619 ft | 13 kts | 296° |
| 2026-05-06 19:29 | 48.12229 | 16.54143 | 618 ft | 5 kts | 296° |
| 2026-05-06 19:29 | 48.12233 | 16.54131 | 613 ft | 1 kts | 296° |
| 2026-05-06 19:29 | 48.12236 | 16.54121 | 616 ft | 2 kts | 296° |
| 2026-05-06 19:29 | 48.12245 | 16.54094 | 615 ft | 4 kts | 296° |
| 2026-05-06 19:30 | 48.12261 | 16.54044 | 613 ft | 7 kts | 296° |
| 2026-05-06 19:30 | 48.12289 | 16.53958 | 612 ft | 10 kts | 296° |
| 2026-05-06 19:30 | 48.12319 | 16.53867 | 613 ft | 8 kts | 296° |
| 2026-05-06 19:30 | 48.12329 | 16.53836 | 623 ft | 0 kts | 296° |
| 2026-05-06 19:31 | 48.12330 | 16.53833 | 623 ft | 1 kts | 296° |
| 2026-05-06 19:31 | 48.12332 | 16.53826 | 622 ft | 0 kts | 296° |
| 2026-05-06 19:31 | 48.12333 | 16.53823 | 622 ft | 0 kts | 296° |
| 2026-05-06 19:33 | 48.12335 | 16.53818 | 610 ft | 0 kts | 296° |
| 2026-05-06 19:33 | 48.12335 | 16.53817 | 610 ft | 0 kts | 296° |
| 2026-05-06 19:36 | 48.12335 | 16.53816 | 610 ft | 0 kts | 296° |
| 2026-05-06 19:36 | 48.12338 | 16.53807 | 612 ft | 2 kts | 295° |
| 2026-05-06 19:36 | 48.12351 | 16.53767 | 610 ft | 6 kts | 296° |
| 2026-05-06 19:37 | 48.12373 | 16.53701 | 615 ft | 7 kts | 296° |
| 2026-05-06 19:37 | 48.12386 | 16.53628 | 614 ft | 7 kts | 266° |
| 2026-05-06 19:37 | 48.12369 | 16.53588 | 614 ft | 5 kts | 221° |
| 2026-05-06 19:37 | 48.12352 | 16.53573 | 615 ft | 0 kts | 210° |
| 2026-05-06 19:45 | 48.12349 | 16.53570 | 624 ft | 1 kts | 210° |
| 2026-05-06 19:46 | 48.12326 | 16.53551 | 616 ft | 8 kts | 208° |
| 2026-05-06 19:46 | 48.12268 | 16.53508 | 616 ft | 10 kts | 206° |
| 2026-05-06 19:46 | 48.12219 | 16.53530 | 610 ft | 0 kts | 117° |
| 2026-05-06 19:52 | 48.12218 | 16.53533 | 610 ft | 2 kts | 117° |
| 2026-05-06 19:53 | 48.12137 | 16.53775 | 615 ft | 62 kts | 116° |
| 2026-05-06 19:53 | 48.11844 | 16.54669 | 615 ft | 126 kts | 116° |
| 2026-05-06 19:53 | 48.11400 | 16.56040 | 838 ft | 152 kts | 118° |
| 2026-05-06 19:53 | 48.10998 | 16.57487 | 1544 ft | 152 kts | 125° |
| 2026-05-06 19:54 | 48.10533 | 16.58961 | 2032 ft | 165 kts | 128° |
| 2026-05-06 19:54 | 48.09984 | 16.60615 | 2372 ft | 193 kts | 122° |
| 2026-05-06 19:54 | 48.09842 | 16.62797 | 2765 ft | 231 kts | 86° |
| 2026-05-06 19:54 | 48.10504 | 16.65074 | 3402 ft | 249 kts | 65° |
| 2026-05-06 19:55 | 48.11401 | 16.67440 | 3818 ft | 273 kts | 63° |
| 2026-05-06 19:55 | 48.12389 | 16.70016 | 4333 ft | 295 kts | 63° |
| 2026-05-06 19:55 | 48.13428 | 16.72707 | 5161 ft | 301 kts | 62° |
| 2026-05-06 19:55 | 48.14490 | 16.75428 | 6120 ft | 305 kts | 59° |
| 2026-05-06 19:56 | 48.15933 | 16.77773 | 6991 ft | 310 kts | 34° |
| 2026-05-06 19:56 | 48.17878 | 16.79118 | 7883 ft | 309 kts | 9° |
| 2026-05-06 19:56 | 48.19997 | 16.79245 | 8790 ft | 304 kts | 346° |
| 2026-05-06 19:56 | 48.22059 | 16.78551 | 9756 ft | 304 kts | 342° |
| 2026-05-06 19:57 | 48.24120 | 16.77814 | 10377 ft | 317 kts | 342° |
| 2026-05-06 19:57 | 48.26347 | 16.77016 | 10704 ft | 339 kts | 342° |
| 2026-05-06 19:57 | 48.28674 | 16.76190 | 11325 ft | 348 kts | 343° |
| 2026-05-06 19:57 | 48.31061 | 16.75354 | 12035 ft | 356 kts | 343° |
| 2026-05-06 19:58 | 48.33485 | 16.74471 | 12769 ft | 360 kts | 340° |
| 2026-05-06 19:58 | 48.35815 | 16.73062 | 13519 ft | 361 kts | 329° |
| 2026-05-06 19:58 | 48.38060 | 16.71320 | 14202 ft | 365 kts | 328° |
| 2026-05-06 19:58 | 48.40322 | 16.69546 | 14900 ft | 367 kts | 327° |
| 2026-05-06 19:59 | 48.42411 | 16.67353 | 15598 ft | 364 kts | 314° |
| 2026-05-06 19:59 | 48.44136 | 16.64597 | 16300 ft | 361 kts | 302° |
| 2026-05-06 19:59 | 48.45454 | 16.61397 | 17010 ft | 358 kts | 291° |
| 2026-05-06 19:59 | 48.46374 | 16.57937 | 17753 ft | 357 kts | 285° |
| 2026-05-06 20:00 | 48.47239 | 16.54416 | 18400 ft | 359 kts | 285° |
| 2026-05-06 20:00 | 48.48111 | 16.50869 | 18985 ft | 363 kts | 285° |
| 2026-05-06 20:00 | 48.48994 | 16.47287 | 19571 ft | 366 kts | 285° |
| 2026-05-06 20:00 | 48.49887 | 16.43675 | 20147 ft | 369 kts | 285° |
| 2026-05-06 20:01 | 48.50791 | 16.40017 | 20724 ft | 373 kts | 285° |
| 2026-05-06 20:01 | 48.51697 | 16.36334 | 21289 ft | 376 kts | 285° |
| 2026-05-06 20:01 | 48.52609 | 16.32614 | 21856 ft | 380 kts | 285° |
| 2026-05-06 20:01 | 48.53529 | 16.28856 | 22416 ft | 383 kts | 285° |
| 2026-05-06 20:02 | 48.54443 | 16.25113 | 22971 ft | 387 kts | 285° |
| 2026-05-06 20:02 | 48.55374 | 16.21284 | 23519 ft | 390 kts | 284° |
| 2026-05-06 20:02 | 48.56314 | 16.17422 | 24027 ft | 391 kts | 284° |
| 2026-05-06 20:02 | 48.57256 | 16.13559 | 24522 ft | 392 kts | 284° |
| 2026-05-06 20:03 | 48.58253 | 16.09707 | 25011 ft | 395 kts | 287° |
| 2026-05-06 20:03 | 48.59329 | 16.05880 | 25488 ft | 397 kts | 288° |
| 2026-05-06 20:03 | 48.60454 | 16.02051 | 25946 ft | 399 kts | 288° |
| 2026-05-06 20:03 | 48.61591 | 15.98212 | 26418 ft | 401 kts | 288° |
| 2026-05-06 20:04 | 48.62729 | 15.94349 | 26866 ft | 402 kts | 288° |
| 2026-05-06 20:04 | 48.63855 | 15.90473 | 27331 ft | 403 kts | 288° |
| 2026-05-06 20:04 | 48.64975 | 15.86574 | 27794 ft | 405 kts | 288° |
| 2026-05-06 20:04 | 48.66078 | 15.82703 | 28276 ft | 406 kts | 287° |
| 2026-05-06 20:05 | 48.67194 | 15.78765 | 28762 ft | 407 kts | 287° |
| 2026-05-06 20:05 | 48.68307 | 15.74829 | 29219 ft | 408 kts | 287° |
| 2026-05-06 20:05 | 48.69423 | 15.70874 | 29643 ft | 409 kts | 287° |
| 2026-05-06 20:05 | 48.70543 | 15.66894 | 30018 ft | 411 kts | 287° |
| 2026-05-06 20:06 | 48.71664 | 15.62904 | 30352 ft | 413 kts | 287° |
| 2026-05-06 20:06 | 48.72791 | 15.58885 | 30688 ft | 415 kts | 287° |
| 2026-05-06 20:06 | 48.73920 | 15.54865 | 31015 ft | 416 kts | 287° |
| 2026-05-06 20:06 | 48.75058 | 15.50810 | 31336 ft | 418 kts | 287° |
| 2026-05-06 20:07 | 48.76193 | 15.46771 | 31762 ft | 417 kts | 286° |
| 2026-05-06 20:07 | 48.77310 | 15.42786 | 32274 ft | 415 kts | 285° |
| 2026-05-06 20:07 | 48.78432 | 15.38766 | 32712 ft | 414 kts | 285° |
| 2026-05-06 20:07 | 48.79552 | 15.34745 | 33138 ft | 413 kts | 285° |
| 2026-05-06 20:08 | 48.80819 | 15.30814 | 33598 ft | 419 kts | 293° |
| 2026-05-06 20:08 | 48.82477 | 15.27131 | 34004 ft | 423 kts | 297° |
| 2026-05-06 20:08 | 48.84198 | 15.23520 | 34355 ft | 423 kts | 298° |
| 2026-05-06 20:08 | 48.85918 | 15.19892 | 34675 ft | 423 kts | 298° |
| 2026-05-06 20:09 | 48.87615 | 15.16299 | 34981 ft | 423 kts | 298° |
| 2026-05-06 20:09 | 48.89326 | 15.12667 | 35281 ft | 423 kts | 298° |
| 2026-05-06 20:09 | 48.91046 | 15.09032 | 35571 ft | 424 kts | 298° |
| 2026-05-06 20:09 | 48.92794 | 15.05409 | 35868 ft | 425 kts | 299° |
| 2026-05-06 20:10 | 48.94560 | 15.01801 | 36128 ft | 426 kts | 299° |
| 2026-05-06 20:10 | 48.96338 | 14.98196 | 36398 ft | 426 kts | 300° |
| 2026-05-06 20:10 | 48.98119 | 14.94586 | 36668 ft | 426 kts | 300° |
| 2026-05-06 20:10 | 48.99897 | 14.90965 | 36936 ft | 426 kts | 300° |
| 2026-05-06 20:11 | 49.01665 | 14.87344 | 37200 ft | 426 kts | 300° |
| 2026-05-06 20:11 | 49.03430 | 14.83711 | 37447 ft | 426 kts | 300° |
| 2026-05-06 20:11 | 49.05187 | 14.80079 | 37680 ft | 427 kts | 300° |
| 2026-05-06 20:11 | 49.06947 | 14.76427 | 37760 ft | 426 kts | 300° |
| 2026-05-06 20:12 | 49.10454 | 14.69150 | 37771 ft | 426 kts | 300° |
| 2026-05-06 20:12 | 49.13954 | 14.61892 | 37759 ft | 428 kts | 300° |
| 2026-05-06 20:13 | 49.17479 | 14.54563 | 37760 ft | 428 kts | 300° |
| 2026-05-06 20:13 | 49.20996 | 14.47217 | 37765 ft | 428 kts | 300° |
| 2026-05-06 20:14 | 49.24507 | 14.39865 | 37761 ft | 428 kts | 300° |
| 2026-05-06 20:14 | 49.28016 | 14.32486 | 37793 ft | 428 kts | 300° |
| 2026-05-06 20:15 | 49.31526 | 14.25115 | 37777 ft | 428 kts | 300° |
| 2026-05-06 20:15 | 49.35004 | 14.17760 | 37783 ft | 428 kts | 300° |
| 2026-05-06 20:16 | 49.38495 | 14.10353 | 37782 ft | 428 kts | 300° |
| 2026-05-06 20:16 | 49.41990 | 14.02944 | 37789 ft | 428 kts | 300° |
| 2026-05-06 20:17 | 49.45490 | 13.95511 | 37813 ft | 428 kts | 301° |
| 2026-05-06 20:17 | 49.48976 | 13.88065 | 37791 ft | 429 kts | 301° |
| 2026-05-06 20:18 | 49.52466 | 13.80596 | 37782 ft | 430 kts | 301° |
| 2026-05-06 20:18 | 49.55956 | 13.73103 | 37796 ft | 430 kts | 300° |
| 2026-05-06 20:19 | 49.58852 | 13.66858 | 37810 ft | 431 kts | 300° |
| 2026-05-06 20:19 | 49.62908 | 13.58110 | 37839 ft | 432 kts | 301° |
| 2026-05-06 20:20 | 49.66401 | 13.50560 | 37828 ft | 433 kts | 301° |
| 2026-05-06 20:20 | 49.69308 | 13.44260 | 37827 ft | 433 kts | 301° |
| 2026-05-06 20:21 | 49.72803 | 13.36662 | 37831 ft | 434 kts | 301° |
| 2026-05-06 20:21 | 49.76290 | 13.29041 | 37836 ft | 435 kts | 301° |
| 2026-05-06 20:22 | 49.79781 | 13.21389 | 37833 ft | 435 kts | 301° |
| 2026-05-06 20:22 | 49.83268 | 13.13741 | 37828 ft | 435 kts | 301° |
| 2026-05-06 20:23 | 49.86749 | 13.06082 | 37804 ft | 435 kts | 300° |
| 2026-05-06 20:23 | 49.90223 | 12.98398 | 37805 ft | 435 kts | 300° |
| 2026-05-06 20:24 | 49.93694 | 12.90711 | 37809 ft | 434 kts | 300° |
| 2026-05-06 20:24 | 49.97154 | 12.83012 | 37827 ft | 435 kts | 300° |
| 2026-05-06 20:25 | 50.00619 | 12.75290 | 37801 ft | 436 kts | 300° |
| 2026-05-06 20:25 | 50.04071 | 12.67581 | 37798 ft | 437 kts | 300° |
| 2026-05-06 20:26 | 50.07549 | 12.59811 | 37786 ft | 438 kts | 300° |
| 2026-05-06 20:26 | 50.11028 | 12.52011 | 37786 ft | 438 kts | 300° |
| 2026-05-06 20:27 | 50.14487 | 12.44197 | 37815 ft | 438 kts | 300° |
| 2026-05-06 20:27 | 50.17895 | 12.36311 | 37802 ft | 436 kts | 295° |
| 2026-05-06 20:28 | 50.20038 | 12.27633 | 37791 ft | 426 kts | 279° |
| 2026-05-06 20:28 | 50.21431 | 12.18694 | 37806 ft | 426 kts | 279° |
| 2026-05-06 20:29 | 50.22854 | 12.09702 | 37799 ft | 427 kts | 279° |
| 2026-05-06 20:29 | 50.24267 | 12.00708 | 37827 ft | 427 kts | 279° |
| 2026-05-06 20:30 | 50.26369 | 11.87187 | 37821 ft | 427 kts | 279° |
| 2026-05-06 20:31 | 50.27772 | 11.78165 | 37820 ft | 427 kts | 279° |
| 2026-05-06 20:31 | 50.29159 | 11.69154 | 37848 ft | 427 kts | 279° |
| 2026-05-06 20:32 | 50.30535 | 11.60123 | 37840 ft | 426 kts | 279° |
| 2026-05-06 20:32 | 50.31898 | 11.51099 | 37843 ft | 426 kts | 279° |
| 2026-05-06 20:33 | 50.33230 | 11.42116 | 37826 ft | 426 kts | 279° |
| 2026-05-06 20:33 | 50.34561 | 11.33073 | 37813 ft | 426 kts | 279° |
| 2026-05-06 20:34 | 50.35883 | 11.24023 | 37804 ft | 426 kts | 279° |
| 2026-05-06 20:34 | 50.37205 | 11.14969 | 37800 ft | 426 kts | 279° |
| 2026-05-06 20:35 | 50.38523 | 11.05913 | 37812 ft | 426 kts | 279° |
| 2026-05-06 20:35 | 50.39836 | 10.96859 | 37807 ft | 426 kts | 279° |
| 2026-05-06 20:36 | 50.41135 | 10.87844 | 37811 ft | 427 kts | 279° |
| 2026-05-06 20:36 | 50.42436 | 10.78749 | 37810 ft | 427 kts | 279° |
| 2026-05-06 20:36 | 50.43082 | 10.74193 | 37577 ft | 428 kts | 278° |
| 2026-05-06 20:37 | 50.43725 | 10.69635 | 37307 ft | 427 kts | 278° |
| 2026-05-06 20:37 | 50.44374 | 10.65085 | 37067 ft | 428 kts | 278° |
| 2026-05-06 20:37 | 50.45028 | 10.60533 | 36802 ft | 428 kts | 278° |
| 2026-05-06 20:37 | 50.45685 | 10.55979 | 36542 ft | 428 kts | 278° |
| 2026-05-06 20:38 | 50.46346 | 10.51426 | 36284 ft | 428 kts | 278° |
| 2026-05-06 20:38 | 50.47165 | 10.46924 | 36029 ft | 432 kts | 286° |
| 2026-05-06 20:38 | 50.48390 | 10.42585 | 35777 ft | 435 kts | 290° |
| 2026-05-06 20:38 | 50.49683 | 10.38312 | 35528 ft | 433 kts | 290° |
| 2026-05-06 20:39 | 50.50955 | 10.34097 | 35290 ft | 431 kts | 290° |
| 2026-05-06 20:39 | 50.52235 | 10.29843 | 35050 ft | 429 kts | 290° |
| 2026-05-06 20:39 | 50.53502 | 10.25612 | 34819 ft | 427 kts | 290° |
| 2026-05-06 20:39 | 50.54760 | 10.21400 | 34580 ft | 425 kts | 290° |
| 2026-05-06 20:40 | 50.56012 | 10.17205 | 34345 ft | 423 kts | 290° |
| 2026-05-06 20:40 | 50.57257 | 10.13026 | 34110 ft | 421 kts | 289° |
| 2026-05-06 20:40 | 50.58493 | 10.08866 | 33885 ft | 419 kts | 289° |
| 2026-05-06 20:40 | 50.59724 | 10.04722 | 33616 ft | 417 kts | 289° |
| 2026-05-06 20:41 | 50.60947 | 10.00596 | 33338 ft | 415 kts | 289° |
| 2026-05-06 20:41 | 50.62166 | 9.96476 | 33060 ft | 414 kts | 289° |
| 2026-05-06 20:41 | 50.63381 | 9.92376 | 32787 ft | 412 kts | 289° |
| 2026-05-06 20:41 | 50.64590 | 9.88290 | 32520 ft | 411 kts | 289° |
| 2026-05-06 20:42 | 50.65793 | 9.84207 | 32248 ft | 410 kts | 289° |
| 2026-05-06 20:42 | 50.66988 | 9.80139 | 31998 ft | 408 kts | 290° |
| 2026-05-06 20:42 | 50.68179 | 9.76081 | 31798 ft | 407 kts | 290° |
| 2026-05-06 20:43 | 50.70532 | 9.68030 | 31832 ft | 407 kts | 290° |
| 2026-05-06 20:43 | 50.72897 | 9.59903 | 31831 ft | 407 kts | 290° |
| 2026-05-06 20:44 | 50.75383 | 9.51841 | 31825 ft | 408 kts | 292° |
| 2026-05-06 20:44 | 50.76683 | 9.47839 | 31323 ft | 411 kts | 293° |
| 2026-05-06 20:44 | 50.78015 | 9.43757 | 30345 ft | 421 kts | 294° |
| 2026-05-06 20:44 | 50.79357 | 9.39620 | 29655 ft | 422 kts | 294° |
| 2026-05-06 20:45 | 50.80665 | 9.35551 | 29099 ft | 418 kts | 294° |
| 2026-05-06 20:45 | 50.81968 | 9.31457 | 28549 ft | 413 kts | 294° |
| 2026-05-06 20:45 | 50.83248 | 9.27423 | 28102 ft | 407 kts | 294° |
| 2026-05-06 20:45 | 50.84509 | 9.23445 | 27668 ft | 402 kts | 294° |
| 2026-05-06 20:46 | 50.85759 | 9.19498 | 27223 ft | 399 kts | 294° |
| 2026-05-06 20:46 | 50.86985 | 9.15597 | 26787 ft | 395 kts | 294° |
| 2026-05-06 20:46 | 50.88203 | 9.11710 | 26333 ft | 391 kts | 294° |
| 2026-05-06 20:46 | 50.89405 | 9.07875 | 25891 ft | 387 kts | 294° |
| 2026-05-06 20:47 | 50.90597 | 9.04069 | 25436 ft | 385 kts | 294° |
| 2026-05-06 20:47 | 50.91784 | 9.00275 | 24962 ft | 383 kts | 294° |
| 2026-05-06 20:47 | 50.92961 | 8.96504 | 24497 ft | 381 kts | 294° |
| 2026-05-06 20:47 | 50.94132 | 8.92742 | 24013 ft | 380 kts | 294° |
| 2026-05-06 20:48 | 50.95309 | 8.88998 | 23556 ft | 378 kts | 295° |
| 2026-05-06 20:48 | 50.96493 | 8.85304 | 23035 ft | 376 kts | 295° |
| 2026-05-06 20:48 | 50.97676 | 8.81636 | 22588 ft | 371 kts | 295° |
| 2026-05-06 20:48 | 50.98851 | 8.78011 | 22127 ft | 367 kts | 295° |
| 2026-05-06 20:49 | 51.00017 | 8.74413 | 21629 ft | 366 kts | 295° |
| 2026-05-06 20:49 | 51.00940 | 8.70750 | 21193 ft | 361 kts | 282° |
| 2026-05-06 20:49 | 51.01281 | 8.66857 | 20838 ft | 354 kts | 270° |
| 2026-05-06 20:49 | 51.01054 | 8.62978 | 20424 ft | 350 kts | 258° |
| 2026-05-06 20:50 | 51.00612 | 8.59169 | 19954 ft | 350 kts | 258° |
| 2026-05-06 20:50 | 51.00191 | 8.55398 | 19659 ft | 345 kts | 259° |
| 2026-05-06 20:50 | 50.99780 | 8.51645 | 19249 ft | 344 kts | 259° |
| 2026-05-06 20:50 | 50.99372 | 8.47914 | 18812 ft | 343 kts | 259° |
| 2026-05-06 20:51 | 50.98960 | 8.44184 | 18408 ft | 341 kts | 259° |
| 2026-05-06 20:51 | 50.98549 | 8.40485 | 17987 ft | 339 kts | 259° |
| 2026-05-06 20:51 | 50.98136 | 8.36809 | 17526 ft | 337 kts | 259° |
| 2026-05-06 20:51 | 50.97724 | 8.33160 | 17065 ft | 335 kts | 259° |
| 2026-05-06 20:52 | 50.97303 | 8.29537 | 16569 ft | 334 kts | 256° |
| 2026-05-06 20:52 | 50.96523 | 8.26112 | 16172 ft | 329 kts | 244° |
| 2026-05-06 20:52 | 50.95471 | 8.22888 | 15721 ft | 328 kts | 243° |
| 2026-05-06 20:52 | 50.94417 | 8.19685 | 15337 ft | 325 kts | 243° |
| 2026-05-06 20:53 | 50.93391 | 8.16572 | 14959 ft | 321 kts | 242° |
| 2026-05-06 20:53 | 50.92356 | 8.13447 | 14581 ft | 318 kts | 242° |
| 2026-05-06 20:53 | 50.91330 | 8.10349 | 14215 ft | 316 kts | 242° |
| 2026-05-06 20:53 | 50.90314 | 8.07278 | 13841 ft | 313 kts | 242° |
| 2026-05-06 20:54 | 50.89307 | 8.04238 | 13447 ft | 311 kts | 242° |
| 2026-05-06 20:54 | 50.88307 | 8.01225 | 13065 ft | 307 kts | 242° |
| 2026-05-06 20:54 | 50.87312 | 7.98240 | 12696 ft | 305 kts | 243° |
| 2026-05-06 20:54 | 50.86327 | 7.95285 | 12326 ft | 303 kts | 243° |
| 2026-05-06 20:55 | 50.85349 | 7.92347 | 11950 ft | 301 kts | 243° |
| 2026-05-06 20:55 | 50.84377 | 7.89426 | 11587 ft | 299 kts | 244° |
| 2026-05-06 20:55 | 50.83408 | 7.86517 | 11215 ft | 298 kts | 243° |
| 2026-05-06 20:55 | 50.82440 | 7.83622 | 10845 ft | 297 kts | 243° |
| 2026-05-06 20:56 | 50.81487 | 7.80770 | 10474 ft | 296 kts | 243° |
| 2026-05-06 20:56 | 50.80523 | 7.77887 | 10093 ft | 296 kts | 243° |
| 2026-05-06 20:56 | 50.79571 | 7.75043 | 9813 ft | 291 kts | 244° |
| 2026-05-06 20:56 | 50.78656 | 7.72191 | 9401 ft | 290 kts | 249° |
| 2026-05-06 20:57 | 50.77973 | 7.69182 | 8846 ft | 293 kts | 253° |
| 2026-05-06 20:57 | 50.77337 | 7.66099 | 8247 ft | 297 kts | 255° |
| 2026-05-06 20:57 | 50.76781 | 7.62962 | 7659 ft | 294 kts | 256° |
| 2026-05-06 20:57 | 50.76255 | 7.59893 | 7154 ft | 285 kts | 256° |
| 2026-05-06 20:58 | 50.75745 | 7.56912 | 6664 ft | 277 kts | 256° |
| 2026-05-06 20:58 | 50.75229 | 7.54016 | 6133 ft | 271 kts | 252° |
| 2026-05-06 20:58 | 50.74538 | 7.51274 | 5590 ft | 266 kts | 249° |
| 2026-05-06 20:58 | 50.73816 | 7.48613 | 5056 ft | 262 kts | 249° |
| 2026-05-06 20:59 | 50.73091 | 7.45990 | 4516 ft | 259 kts | 251° |
| 2026-05-06 20:59 | 50.72479 | 7.43331 | 3966 ft | 256 kts | 253° |
| 2026-05-06 20:59 | 50.72036 | 7.40678 | 3445 ft | 251 kts | 267° |
| 2026-05-06 20:59 | 50.72132 | 7.37957 | 3052 ft | 246 kts | 286° |
| 2026-05-06 21:00 | 50.72736 | 7.35555 | 3015 ft | 226 kts | 303° |
| 2026-05-06 21:00 | 50.73653 | 7.33679 | 3021 ft | 207 kts | 317° |
| 2026-05-06 21:00 | 50.74662 | 7.32221 | 3034 ft | 188 kts | 319° |
| 2026-05-06 21:00 | 50.75612 | 7.30855 | 2961 ft | 181 kts | 319° |
| 2026-05-06 21:01 | 50.76534 | 7.29529 | 2769 ft | 178 kts | 319° |
| 2026-05-06 21:01 | 50.77446 | 7.28217 | 2535 ft | 177 kts | 319° |
| 2026-05-06 21:01 | 50.78353 | 7.26911 | 2302 ft | 176 kts | 319° |
| 2026-05-06 21:01 | 50.79227 | 7.25652 | 2073 ft | 158 kts | 320° |
| 2026-05-06 21:02 | 50.79977 | 7.24567 | 1859 ft | 136 kts | 320° |
| 2026-05-06 21:02 | 50.80650 | 7.23596 | 1649 ft | 127 kts | 320° |
| 2026-05-06 21:02 | 50.81293 | 7.22669 | 1545 ft | 124 kts | 320° |
| 2026-05-06 21:02 | 50.81930 | 7.21749 | 1450 ft | 123 kts | 319° |
| 2026-05-06 21:03 | 50.82558 | 7.20851 | 1328 ft | 123 kts | 320° |
| 2026-05-06 21:03 | 50.83194 | 7.19944 | 1128 ft | 122 kts | 319° |
| 2026-05-06 21:03 | 50.83833 | 7.19028 | 860 ft | 126 kts | 319° |
| 2026-05-06 21:03 | 50.84480 | 7.18085 | 677 ft | 126 kts | 319° |
| 2026-05-06 21:04 | 50.85123 | 7.17142 | 473 ft | 126 kts | 320° |
| 2026-05-06 21:04 | 50.85760 | 7.16224 | 309 ft | 118 kts | 320° |
| 2026-05-06 21:04 | 50.86274 | 7.15481 | 289 ft | 78 kts | 317° |
| 2026-05-06 21:04 | 50.86618 | 7.14974 | 274 ft | 64 kts | 317° |
| 2026-05-06 21:05 | 50.86862 | 7.14526 | 261 ft | 34 kts | 287° |
| 2026-05-06 21:05 | 50.86888 | 7.14316 | 258 ft | 19 kts | 280° |
| 2026-05-06 21:05 | 50.86917 | 7.14098 | 255 ft | 20 kts | 296° |
| 2026-05-06 21:05 | 50.87026 | 7.13930 | 245 ft | 23 kts | 317° |
| 2026-05-06 21:06 | 50.87150 | 7.13752 | 240 ft | 25 kts | 318° |
| 2026-05-06 21:06 | 50.87228 | 7.13635 | 237 ft | 15 kts | 316° |
| 2026-05-06 21:06 | 50.87312 | 7.13514 | 234 ft | 18 kts | 318° |
| 2026-05-06 21:06 | 50.87410 | 7.13374 | 233 ft | 19 kts | 316° |
| 2026-05-06 21:07 | 50.87510 | 7.13228 | 233 ft | 20 kts | 317° |
| 2026-05-06 21:07 | 50.87611 | 7.13080 | 233 ft | 20 kts | 319° |
| 2026-05-06 21:07 | 50.87711 | 7.12938 | 233 ft | 19 kts | 318° |
| 2026-05-06 21:07 | 50.87793 | 7.12794 | 232 ft | 16 kts | 284° |
| 2026-05-06 21:08 | 50.87776 | 7.12628 | 232 ft | 15 kts | 265° |
| 2026-05-06 21:08 | 50.87788 | 7.12495 | 232 ft | 8 kts | 287° |
| 2026-05-06 21:08 | 50.87801 | 7.12431 | 232 ft | 2 kts | 288° |
| 2026-05-06 21:08 | 50.87804 | 7.12416 | 234 ft | 0 kts | 288° |